createdAt,value
2016-12-30T00:00:01.319Z,1031.29
2016-12-30T00:04:57.554Z,1031.12
2016-12-30T00:09:53.919Z,1031.17
2016-12-30T00:14:50.033Z,1031.23
2016-12-30T00:19:46.972Z,1031.19
2016-12-30T00:24:43.404Z,1031.23
2016-12-30T00:29:39.693Z,1031.21
2016-12-30T00:34:36.147Z,1031.19
2016-12-30T00:39:32.649Z,1031.15
2016-12-30T00:44:28.945Z,1031.11
2016-12-30T00:49:25.289Z,1030.96
2016-12-30T00:54:21.641Z,1030.91
2016-12-30T00:59:18.157Z,1031.07
2016-12-30T01:04:14.558Z,1031.04
2016-12-30T01:09:11.622Z,1031.10
2016-12-30T01:14:08.654Z,1031.14
2016-12-30T01:19:04.825Z,1031.18
2016-12-30T01:24:02.088Z,1031.09
2016-12-30T01:28:58.377Z,1031.07
2016-12-30T01:33:56.431Z,1030.99
2016-12-30T01:38:52.644Z,1031.08
2016-12-30T01:43:49.555Z,1030.98
2016-12-30T01:48:45.934Z,1031.05
2016-12-30T01:53:42.878Z,1031.07
2016-12-30T01:58:39.222Z,1031.04
2016-12-30T02:03:37.375Z,1031.07
2016-12-30T02:08:33.588Z,1030.87
2016-12-30T02:13:30.820Z,1030.97
2016-12-30T02:18:27.986Z,1030.89
2016-12-30T02:23:24.183Z,1030.97
2016-12-30T02:28:20.564Z,1030.91
2016-12-30T02:33:18.157Z,1031.02
2016-12-30T02:38:14.079Z,1030.99
2016-12-30T02:43:10.429Z,1030.89
2016-12-30T02:48:06.725Z,1030.95
2016-12-30T02:53:03.068Z,1030.91
2016-12-30T02:57:59.337Z,1030.98
2016-12-30T03:02:56.402Z,1031.02
2016-12-30T03:07:53.118Z,1031.00
2016-12-30T03:12:49.495Z,1031.05
2016-12-30T03:17:45.733Z,1031.01
2016-12-30T03:22:41.645Z,1030.86
2016-12-30T03:27:38.379Z,1030.84
2016-12-30T03:32:35.503Z,1030.74
2016-12-30T03:37:31.675Z,1030.85
2016-12-30T03:42:28.121Z,1030.78
2016-12-30T03:47:24.802Z,1030.85
2016-12-30T03:52:21.388Z,1030.85
2016-12-30T03:57:18.293Z,1030.83
2016-12-30T04:02:14.603Z,1030.82
2016-12-30T04:07:10.930Z,1030.81
2016-12-30T04:12:07.670Z,1030.82
2016-12-30T04:17:03.934Z,1030.77
2016-12-30T04:22:00.286Z,1030.67
2016-12-30T04:26:56.319Z,1030.74
2016-12-30T04:31:52.565Z,1030.74
2016-12-30T04:36:48.834Z,1030.75
2016-12-30T04:41:46.090Z,1030.73
2016-12-30T04:46:42.214Z,1030.84
2016-12-30T04:51:38.573Z,1030.55
2016-12-30T04:56:34.685Z,1030.80
2016-12-30T05:01:32.163Z,1030.85
2016-12-30T05:06:28.387Z,1030.85
2016-12-30T05:11:24.973Z,1030.88
2016-12-30T05:16:21.504Z,1030.92
2016-12-30T05:21:17.896Z,1030.92
2016-12-30T05:26:14.241Z,1030.90
2016-12-30T05:31:10.589Z,1030.81
2016-12-30T05:36:06.889Z,1030.83
2016-12-30T05:41:03.269Z,1030.74
2016-12-30T05:45:59.667Z,1030.74
2016-12-30T05:50:56.064Z,1030.80
2016-12-30T05:55:52.479Z,1030.74
2016-12-30T06:00:48.654Z,1030.78
2016-12-30T06:05:45.050Z,1030.74
2016-12-30T06:10:41.960Z,1030.81
2016-12-30T06:15:38.212Z,1030.80
2016-12-30T06:20:34.660Z,1030.81
2016-12-30T06:25:30.872Z,1030.75
2016-12-30T06:30:27.503Z,1030.84
2016-12-30T06:35:23.966Z,1030.88
2016-12-30T06:40:20.390Z,1030.84
2016-12-30T06:45:16.574Z,1030.88
2016-12-30T06:50:13.486Z,1030.84
2016-12-30T06:55:09.758Z,1030.88
2016-12-30T07:00:06.085Z,1030.88
2016-12-30T07:05:02.482Z,1030.93
2016-12-30T07:09:59.913Z,1030.96
2016-12-30T07:14:55.877Z,1030.87
2016-12-30T07:19:52.088Z,1030.95
2016-12-30T07:24:49.234Z,1031.03
2016-12-30T07:29:45.794Z,1031.06
2016-12-30T07:34:42.009Z,1031.06
2016-12-30T07:39:39.231Z,1031.00
2016-12-30T07:44:35.450Z,1031.00
2016-12-30T07:49:32.019Z,1030.85
2016-12-30T07:54:28.437Z,1030.96
2016-12-30T07:59:24.933Z,1030.94
2016-12-30T08:04:21.320Z,1030.91
2016-12-30T08:09:18.115Z,1030.94
2016-12-30T08:14:14.411Z,1030.87
2016-12-30T08:19:10.834Z,1030.83
2016-12-30T08:24:07.269Z,1030.90
2016-12-30T08:29:04.274Z,1030.86
2016-12-30T08:34:00.659Z,1030.83
2016-12-30T08:38:57.200Z,1030.87
2016-12-30T08:43:53.585Z,1030.94
2016-12-30T08:48:49.864Z,1030.91
2016-12-30T08:53:46.080Z,1030.86
2016-12-30T08:58:42.620Z,1030.78
2016-12-30T09:03:39.152Z,1030.81
2016-12-30T09:08:36.571Z,1030.80
2016-12-30T09:13:34.040Z,1030.72
2016-12-30T09:18:31.166Z,1030.85
2016-12-30T09:23:27.798Z,1030.72
2016-12-30T09:28:24.261Z,1030.73
2016-12-30T09:33:20.593Z,1030.61
2016-12-30T09:38:17.136Z,1030.55
2016-12-30T09:43:14.495Z,1030.43
2016-12-30T09:48:11.470Z,1030.54
2016-12-30T09:53:08.555Z,1030.56
2016-12-30T09:58:05.017Z,1030.60
2016-12-30T10:03:01.154Z,1030.55
2016-12-30T10:07:57.875Z,1030.51
2016-12-30T10:12:54.672Z,1030.49
2016-12-30T10:17:51.977Z,1030.55
2016-12-30T10:22:48.849Z,1030.56
2016-12-30T10:27:45.567Z,1030.43
2016-12-30T10:32:41.867Z,1030.59
2016-12-30T10:37:38.044Z,1030.56
2016-12-30T10:42:34.372Z,1030.59
2016-12-30T10:47:30.823Z,1030.47
2016-12-30T10:52:27.788Z,1030.40
2016-12-30T10:57:26.169Z,1030.34
2016-12-30T11:02:22.542Z,1030.44
2016-12-30T11:07:19.148Z,1030.31
2016-12-30T11:12:15.909Z,1030.20
2016-12-30T11:17:12.520Z,1030.12
2016-12-30T11:22:10.030Z,1030.22
2016-12-30T11:27:06.747Z,1030.11
2016-12-30T11:32:03.335Z,1030.02
2016-12-30T11:36:59.985Z,1029.93
2016-12-30T11:41:56.685Z,1029.93
2016-12-30T11:46:53.651Z,1029.95
2016-12-30T11:51:51.351Z,1029.84
2016-12-30T11:56:47.541Z,1029.93
2016-12-30T12:01:43.808Z,1029.92
2016-12-30T12:06:40.026Z,1029.82
2016-12-30T12:11:36.320Z,1029.82
2016-12-30T12:16:32.432Z,1029.86
2016-12-30T12:21:28.680Z,1029.74
2016-12-30T12:26:25.155Z,1029.77
2016-12-30T12:31:21.707Z,1029.66
2016-12-30T12:36:18.162Z,1029.63
2016-12-30T12:41:15.394Z,1029.60
2016-12-30T12:46:11.565Z,1029.64
2016-12-30T12:51:08.157Z,1029.57
2016-12-30T12:56:04.473Z,1029.37
2016-12-30T13:01:01.190Z,1029.33
2016-12-30T13:05:57.661Z,1029.23
2016-12-30T13:10:54.051Z,1029.22
2016-12-30T13:15:50.281Z,1029.19
2016-12-30T13:20:46.688Z,1029.16
2016-12-30T13:25:43.124Z,1029.12
2016-12-30T13:30:39.751Z,1029.08
2016-12-30T13:35:35.871Z,1029.09
2016-12-30T13:40:33.155Z,1029.19
2016-12-30T13:45:29.169Z,1029.22
2016-12-30T13:50:25.789Z,1029.14
2016-12-30T13:55:21.788Z,1029.13
2016-12-30T14:00:18.144Z,1029.15
2016-12-30T14:05:14.542Z,1029.21
2016-12-30T14:10:11.013Z,1029.17
2016-12-30T14:15:08.085Z,1029.21
2016-12-30T14:20:04.642Z,1029.14
2016-12-30T14:25:01.378Z,1029.13
2016-12-30T14:29:57.904Z,1029.14
2016-12-30T14:34:55.417Z,1029.23
2016-12-30T14:39:51.493Z,1029.24
2016-12-30T14:44:47.851Z,1029.15
2016-12-30T14:49:44.245Z,1029.10
2016-12-30T14:54:40.665Z,1029.00
2016-12-30T14:59:36.918Z,1029.06
2016-12-30T15:04:34.506Z,1029.21
2016-12-30T15:09:30.748Z,1029.23
2016-12-30T15:14:27.230Z,1029.22
2016-12-30T15:19:23.597Z,1029.35
2016-12-30T15:24:20.813Z,1029.35
2016-12-30T15:29:16.802Z,1029.42
2016-12-30T15:34:13.153Z,1029.37
2016-12-30T15:39:09.474Z,1029.42
2016-12-30T15:44:05.850Z,1029.45
2016-12-30T15:49:02.664Z,1029.40
2016-12-30T15:53:58.973Z,1029.41
2016-12-30T15:58:55.272Z,1029.48
2016-12-30T16:03:52.320Z,1029.35
2016-12-30T16:08:48.749Z,1029.27
2016-12-30T16:13:45.085Z,1029.16
2016-12-30T16:18:42.543Z,1029.18
2016-12-30T16:23:38.579Z,1029.11
2016-12-30T16:28:34.826Z,1029.11
2016-12-30T16:33:30.870Z,1029.11
2016-12-30T16:38:27.055Z,1029.07
2016-12-30T16:43:23.330Z,1029.03
2016-12-30T16:48:19.702Z,1028.93
2016-12-30T16:53:16.365Z,1028.92
2016-12-30T16:58:12.767Z,1028.84
2016-12-30T17:03:09.526Z,1028.88
2016-12-30T17:08:05.964Z,1028.74
2016-12-30T17:13:02.804Z,1028.89
2016-12-30T17:17:59.218Z,1028.94
2016-12-30T17:22:56.400Z,1028.90
2016-12-30T17:27:52.721Z,1028.88
2016-12-30T17:32:48.938Z,1028.85
2016-12-30T17:37:45.176Z,1028.87
2016-12-30T17:42:41.617Z,1028.90
2016-12-30T17:47:38.280Z,1028.81
2016-12-30T17:52:35.449Z,1028.84
2016-12-30T17:57:31.769Z,1028.81
2016-12-30T18:02:28.015Z,1028.83
2016-12-30T18:07:24.429Z,1028.74
2016-12-30T18:12:21.123Z,1028.71
2016-12-30T18:17:17.564Z,1028.68
2016-12-30T18:22:13.910Z,1028.68
2016-12-30T18:27:10.306Z,1028.73
2016-12-30T18:32:09.474Z,1028.68
2016-12-30T18:37:05.851Z,1028.61
2016-12-30T18:42:02.296Z,1028.59
2016-12-30T18:46:59.123Z,1028.67
2016-12-30T18:51:55.469Z,1028.69
2016-12-30T18:56:52.025Z,1028.76
2016-12-30T19:01:48.392Z,1028.66
2016-12-30T19:06:44.372Z,1028.56
2016-12-30T19:11:40.670Z,1028.56
2016-12-30T19:16:36.999Z,1028.50
2016-12-30T19:21:33.311Z,1028.42
2016-12-30T19:26:29.757Z,1028.35
2016-12-30T19:31:26.250Z,1028.46
2016-12-30T19:36:22.483Z,1028.41
2016-12-30T19:41:18.832Z,1028.42
2016-12-30T19:46:15.497Z,1028.41
2016-12-30T19:51:12.351Z,1028.33
2016-12-30T19:56:08.905Z,1028.46
2016-12-30T20:01:05.022Z,1028.38
2016-12-30T20:06:01.533Z,1028.51
2016-12-30T20:10:57.855Z,1028.41
2016-12-30T20:15:54.087Z,1028.35
2016-12-30T20:20:50.330Z,1028.32
2016-12-30T20:25:46.503Z,1028.31
2016-12-30T20:30:42.833Z,1028.22
2016-12-30T20:35:39.359Z,1028.11
2016-12-30T20:40:35.616Z,1028.24
2016-12-30T20:45:31.991Z,1028.22
2016-12-30T20:50:28.305Z,1028.20
2016-12-30T20:55:25.584Z,1028.00
2016-12-30T21:00:22.608Z,1028.09
2016-12-30T21:05:19.021Z,1028.02
2016-12-30T21:10:15.382Z,1028.18
2016-12-30T21:15:11.654Z,1028.12
2016-12-30T21:20:07.954Z,1028.02
2016-12-30T21:25:04.367Z,1028.13
2016-12-30T21:30:00.706Z,1028.17
2016-12-30T21:34:57.033Z,1028.22
2016-12-30T21:39:53.374Z,1028.17
2016-12-30T21:44:49.684Z,1028.25
2016-12-30T21:49:45.975Z,1028.27
2016-12-30T21:54:42.812Z,1028.34
2016-12-30T21:59:39.115Z,1028.37
2016-12-30T22:04:35.435Z,1028.35
2016-12-30T22:09:32.129Z,1028.41
2016-12-30T22:14:27.933Z,1028.43
2016-12-30T22:19:24.458Z,1028.45
2016-12-30T22:24:20.848Z,1028.44
2016-12-30T22:29:17.236Z,1028.42
2016-12-30T22:34:13.455Z,1028.46
2016-12-30T22:39:10.616Z,1028.32
2016-12-30T22:44:06.887Z,1028.27
2016-12-30T22:49:03.153Z,1028.28
2016-12-30T22:53:59.492Z,1028.25
2016-12-30T22:58:56.251Z,1028.18
2016-12-30T23:03:52.304Z,1028.30
2016-12-30T23:08:48.670Z,1028.26
2016-12-30T23:13:44.954Z,1028.23
2016-12-30T23:18:41.251Z,1028.14
2016-12-30T23:23:37.718Z,1028.14
2016-12-30T23:28:34.876Z,1028.11
2016-12-30T23:33:31.185Z,1028.21
2016-12-30T23:38:27.241Z,1028.07
2016-12-30T23:43:23.494Z,1028.05
2016-12-30T23:48:19.747Z,1028.00
2016-12-30T23:53:16.363Z,1027.88
2016-12-30T23:58:12.879Z,1027.78
